Frankfort, MI

3:35 PM EST on December 06, 2016 (GMT -0500)
Bluffs of Frankfort | | Change Station

Elev 738 ft 44.64 °N, 86.25 °W | Updated 5 seconds ago

Clear
Clear
43.4 °F
Feels Like 39 °F
N
7.0
Wind Variable Wind from SSW

Today
High -- | Low -- °F
--% Chance of Precip.
Yesterday
High -- | Low -- °F
Precip. -- in
Pressure 29.65 in
Visibility 10.0 miles
Clouds Clear
Windchill 39 °F
Dew Point 32 °F
Humidity 65%
Rainfall 0.00 in
Snow Depth Not available.
8:07 AM 5:04 PM
Waxing Crescent, 45% visible
METAR KFKS 062011Z AUTO 16007G14KT 10SM CLR 06/00 A2965 RMK AO2 T00611004
Pressure 29.65 in
Visibility 10.0 miles
Clouds Clear
Windchill 39 °F
Dew Point 32 °F
Humidity 65%
Rainfall 0.00 in
Snow Depth Not available.
8:07 AM 5:04 PM
Waxing Crescent, 45% visible
METAR KFKS 062011Z AUTO 16007G14KT 10SM CLR 06/00 A2965 RMK AO2 T00611004

10-Day Weather Forecast

Almanac

Astronomy

Dec. 06, 2016 Rise Set
Actual Time
Civil Twilight
Nautical Twilight
Astronomical Twilight
Moon
Length of Visible Light
Length of Day
Tomorrow will be .
, % of the Moon is Illuminated

Today's Extremes

State Highs State Lows

Community

WunderPhotos

Upload Photos

1,956,024 photos uploaded!

WunderBlog® & News

Nearby

Air Quality

  Air Quality AQ Index Pollutant
Not available.

Snow Depth

Station Depth Elevation

Earthquake Activity

City Distance Mag. Time & Date
Minimum magnitude displayed is 2.5.

Coastal Water Temperatures

Place Temperature

Stations

Nearby Weather Stations

Station Location Temp. Windchill Dew Point Humidity Wind Precip. Elev Updated Type
                   

Watches & Warnings

There are currently no watches in effect.